Pagrindinis puslapis
METAR-TAF:

METAR-TAF

Oro uostai :

Sundsvalis-Herniosandas, Švedija

platuma: 62-32N, ilguma: 017-27E, Aukštis: 4 m

Dabartinis oras

Ataskaita buvo paskelbta 37 minutes, ne 11:50 UTC
Vėjas 10 kt iš Šiaurės/Šiaurės Vakarų
Temperatūra -11°C
Drėgmė 78%
Slėgis 996 hPa
Matomumas 10 km arba daugiau
Mažai debesys ne aukštis 1200 ft
Su prošvaistėmis ne aukštis 2500 ft

METAR: ESNN 021150Z 33010KT 9999 FEW012 BKN025 M11/M14 Q0996

Laikas: 13:27 (12:27 UTC)

Prognozė

Ataskaita buvo paskelbta 57 minutes, ne 11:30 UTC
Prognozė galioja nuo 02 metu 12 UTC su 02 metu 21 UTC
Vėjas 8 kt iš Šiaurės/Šiaurės Vakarų
Matomumas 10 km arba daugiau
Su prošvaistėmis ne aukštis 3500 ft
Laikinai
nuo 02 metu 19 UTC su 02 metu 21 UTC
Matomumas: 2000 m
ne aukštis 400 ft
sniegas

TAF: ESNN 021130Z 0212/0221 34008KT 9999 BKN035 TEMPO 0219/0221 2000 -SN VV004

Orai ataskaitas ir orų prognozės (METAR, TAF).

turimą stotys yra geltonos ir raudonos taškus žemėlapyje.

Perkelti pele per norėdami pamatyti stoties vardą.

Tada spustelėkite, norėdami matyti oro stebėjimo ir prognozės.

Norėdami pakeisti žemėlapį: spustelėkite ant žalios mygtukų su juodo kryžiaus žemyn,; žalią mygtuką su brūkšneliu, jei norite nutolinti; arba žalių rodyklių gretimoms žemėlapius.


METAR-TAF: